sensor_id;sensor_type;location;lat;lon;timestamp;P1;durP1;ratioP1;P2;durP2;ratioP2
71769;SDS011;59605;52.122;5.420;2022-07-30T00:00:35;1.80;;;1.10;;
71769;SDS011;59605;52.122;5.420;2022-07-30T00:03:03;2.10;;;0.68;;
71769;SDS011;59605;52.122;5.420;2022-07-30T00:05:29;1.33;;;0.70;;
71769;SDS011;59605;52.122;5.420;2022-07-30T00:07:56;1.37;;;0.70;;
71769;SDS011;59605;52.122;5.420;2022-07-30T00:10:22;1.60;;;0.75;;
71769;SDS011;59605;52.122;5.420;2022-07-30T00:12:49;1.00;;;0.90;;
71769;SDS011;59605;52.122;5.420;2022-07-30T00:15:16;1.13;;;0.90;;
71769;SDS011;59605;52.122;5.420;2022-07-30T00:17:42;1.90;;;0.88;;
71769;SDS011;59605;52.122;5.420;2022-07-30T00:20:14;1.73;;;0.97;;
71769;SDS011;59605;52.122;5.420;2022-07-30T00:22:41;2.42;;;0.80;;
71769;SDS011;59605;52.122;5.420;2022-07-30T00:25:07;2.42;;;0.68;;
71769;SDS011;59605;52.122;5.420;2022-07-30T00:27:34;1.58;;;1.00;;
71769;SDS011;59605;52.122;5.420;2022-07-30T00:30:02;1.45;;;0.88;;
71769;SDS011;59605;52.122;5.420;2022-07-30T00:32:29;1.33;;;0.70;;
71769;SDS011;59605;52.122;5.420;2022-07-30T00:34:56;1.30;;;0.73;;
71769;SDS011;59605;52.122;5.420;2022-07-30T00:37:22;1.33;;;0.90;;
71769;SDS011;59605;52.122;5.420;2022-07-30T00:39:49;1.45;;;0.70;;
71769;SDS011;59605;52.122;5.420;2022-07-30T00:42:15;2.00;;;0.93;;
71769;SDS011;59605;52.122;5.420;2022-07-30T00:44:45;2.40;;;0.60;;
71769;SDS011;59605;52.122;5.420;2022-07-30T00:47:11;1.63;;;1.15;;
71769;SDS011;59605;52.122;5.420;2022-07-30T00:49:38;1.17;;;0.73;;
71769;SDS011;59605;52.122;5.420;2022-07-30T00:52:09;1.95;;;1.13;;
71769;SDS011;59605;52.122;5.420;2022-07-30T00:54:35;1.38;;;1.00;;
71769;SDS011;59605;52.122;5.420;2022-07-30T00:57:02;1.80;;;0.70;;
71769;SDS011;59605;52.122;5.420;2022-07-30T00:59:28;1.77;;;0.85;;
71769;SDS011;59605;52.122;5.420;2022-07-30T01:01:56;1.23;;;0.70;;
71769;SDS011;59605;52.122;5.420;2022-07-30T01:04:25;2.15;;;0.80;;
71769;SDS011;59605;52.122;5.420;2022-07-30T01:06:52;1.70;;;0.90;;
71769;SDS011;59605;52.122;5.420;2022-07-30T01:09:18;2.87;;;0.83;;
71769;SDS011;59605;52.122;5.420;2022-07-30T01:11:44;1.17;;;0.70;;
71769;SDS011;59605;52.122;5.420;2022-07-30T01:14:11;2.10;;;0.80;;
71769;SDS011;59605;52.122;5.420;2022-07-30T01:16:39;1.40;;;0.70;;
71769;SDS011;59605;52.122;5.420;2022-07-30T01:19:16;1.92;;;0.73;;
71769;SDS011;59605;52.122;5.420;2022-07-30T01:22:09;2.50;;;0.90;;
71769;SDS011;59605;52.122;5.420;2022-07-30T01:28:02;1.63;;;0.80;;
71769;SDS011;59605;52.122;5.420;2022-07-30T01:30:33;1.25;;;0.80;;
71769;SDS011;59605;52.122;5.420;2022-07-30T01:33:04;3.22;;;0.80;;
71769;SDS011;59605;52.122;5.420;2022-07-30T01:35:33;2.20;;;0.90;;
71769;SDS011;59605;52.122;5.420;2022-07-30T01:38:01;1.55;;;0.93;;
71769;SDS011;59605;52.122;5.420;2022-07-30T01:40:30;2.28;;;0.88;;
71769;SDS011;59605;52.122;5.420;2022-07-30T01:42:57;2.67;;;0.90;;
71769;SDS011;59605;52.122;5.420;2022-07-30T01:45:27;1.88;;;0.90;;
71769;SDS011;59605;52.122;5.420;2022-07-30T01:47:58;1.60;;;1.00;;
71769;SDS011;59605;52.122;5.420;2022-07-30T01:50:28;2.25;;;1.00;;
71769;SDS011;59605;52.122;5.420;2022-07-30T01:52:56;2.60;;;0.80;;
71769;SDS011;59605;52.122;5.420;2022-07-30T01:55:24;2.35;;;0.95;;
71769;SDS011;59605;52.122;5.420;2022-07-30T01:57:55;2.75;;;0.80;;
71769;SDS011;59605;52.122;5.420;2022-07-30T02:00:24;1.67;;;0.67;;
71769;SDS011;59605;52.122;5.420;2022-07-30T02:02:53;2.05;;;1.00;;
71769;SDS011;59605;52.122;5.420;2022-07-30T02:05:19;3.17;;;1.10;;
71769;SDS011;59605;52.122;5.420;2022-07-30T02:07:56;2.58;;;0.80;;
71769;SDS011;59605;52.122;5.420;2022-07-30T02:10:33;1.83;;;0.80;;
71769;SDS011;59605;52.122;5.420;2022-07-30T02:13:06;1.40;;;0.80;;
71769;SDS011;59605;52.122;5.420;2022-07-30T02:15:48;1.67;;;0.70;;
71769;SDS011;59605;52.122;5.420;2022-07-30T02:18:19;1.23;;;0.80;;
71769;SDS011;59605;52.122;5.420;2022-07-30T02:20:54;1.98;;;1.05;;
71769;SDS011;59605;52.122;5.420;2022-07-30T02:23:37;1.63;;;1.00;;
71769;SDS011;59605;52.122;5.420;2022-07-30T02:26:06;1.40;;;0.80;;
71769;SDS011;59605;52.122;5.420;2022-07-30T02:28:35;1.45;;;0.98;;
71769;SDS011;59605;52.122;5.420;2022-07-30T02:31:04;2.47;;;1.00;;
71769;SDS011;59605;52.122;5.420;2022-07-30T02:33:42;1.42;;;0.88;;
71769;SDS011;59605;52.122;5.420;2022-07-30T02:36:14;2.38;;;1.05;;
71769;SDS011;59605;52.122;5.420;2022-07-30T02:38:44;1.73;;;0.90;;
71769;SDS011;59605;52.122;5.420;2022-07-30T02:41:12;2.33;;;1.10;;
71769;SDS011;59605;52.122;5.420;2022-07-30T02:43:40;2.15;;;1.15;;
71769;SDS011;59605;52.122;5.420;2022-07-30T02:46:08;1.92;;;0.95;;
71769;SDS011;59605;52.122;5.420;2022-07-30T02:48:37;1.55;;;0.95;;
71769;SDS011;59605;52.122;5.420;2022-07-30T02:51:05;2.77;;;0.93;;
71769;SDS011;59605;52.122;5.420;2022-07-30T02:53:33;1.75;;;0.90;;
71769;SDS011;59605;52.122;5.420;2022-07-30T02:56:01;1.33;;;0.70;;
71769;SDS011;59605;52.122;5.420;2022-07-30T02:58:30;4.18;;;0.90;;
71769;SDS011;59605;52.122;5.420;2022-07-30T03:00:58;2.03;;;1.10;;
71769;SDS011;59605;52.122;5.420;2022-07-30T03:03:28;2.17;;;1.00;;
71769;SDS011;59605;52.122;5.420;2022-07-30T03:05:55;1.55;;;0.90;;
71769;SDS011;59605;52.122;5.420;2022-07-30T03:08:25;1.80;;;1.10;;
71769;SDS011;59605;52.122;5.420;2022-07-30T03:10:53;1.73;;;0.98;;
71769;SDS011;59605;52.122;5.420;2022-07-30T03:13:20;1.85;;;0.90;;
71769;SDS011;59605;52.122;5.420;2022-07-30T03:15:49;1.53;;;1.00;;
71769;SDS011;59605;52.122;5.420;2022-07-30T03:18:18;2.78;;;1.23;;
71769;SDS011;59605;52.122;5.420;2022-07-30T03:20:50;1.40;;;0.80;;
71769;SDS011;59605;52.122;5.420;2022-07-30T03:23:21;1.52;;;0.82;;
71769;SDS011;59605;52.122;5.420;2022-07-30T03:25:59;1.00;;;0.90;;
71769;SDS011;59605;52.122;5.420;2022-07-30T03:28:28;2.03;;;0.90;;
71769;SDS011;59605;52.122;5.420;2022-07-30T03:30:57;1.35;;;0.70;;
71769;SDS011;59605;52.122;5.420;2022-07-30T03:33:25;3.72;;;1.13;;
71769;SDS011;59605;52.122;5.420;2022-07-30T03:36:04;2.00;;;1.08;;
71769;SDS011;59605;52.122;5.420;2022-07-30T03:38:31;1.55;;;0.93;;
71769;SDS011;59605;52.122;5.420;2022-07-30T03:40:59;1.50;;;1.40;;
71769;SDS011;59605;52.122;5.420;2022-07-30T03:43:25;2.50;;;1.20;;
71769;SDS011;59605;52.122;5.420;2022-07-30T03:45:58;1.50;;;0.80;;
71769;SDS011;59605;52.122;5.420;2022-07-30T03:48:27;1.75;;;1.02;;
71769;SDS011;59605;52.122;5.420;2022-07-30T03:50:54;1.38;;;0.88;;
71769;SDS011;59605;52.122;5.420;2022-07-30T03:53:21;1.20;;;1.10;;
71769;SDS011;59605;52.122;5.420;2022-07-30T03:55:50;1.10;;;1.00;;
71769;SDS011;59605;52.122;5.420;2022-07-30T03:58:18;1.65;;;0.93;;
71769;SDS011;59605;52.122;5.420;2022-07-30T04:00:48;1.50;;;0.73;;
71769;SDS011;59605;52.122;5.420;2022-07-30T04:03:29;1.30;;;0.98;;
71769;SDS011;59605;52.122;5.420;2022-07-30T04:05:57;1.80;;;0.80;;
71769;SDS011;59605;52.122;5.420;2022-07-30T04:08:23;2.08;;;1.25;;
71769;SDS011;59605;52.122;5.420;2022-07-30T04:10:50;2.17;;;0.98;;
71769;SDS011;59605;52.122;5.420;2022-07-30T04:13:17;1.38;;;1.00;;
71769;SDS011;59605;52.122;5.420;2022-07-30T04:19:07;1.40;;;0.97;;
71769;SDS011;59605;52.122;5.420;2022-07-30T04:21:39;1.27;;;0.82;;
71769;SDS011;59605;52.122;5.420;2022-07-30T04:24:07;2.05;;;1.02;;
71769;SDS011;59605;52.122;5.420;2022-07-30T04:26:35;1.98;;;1.30;;
71769;SDS011;59605;52.122;5.420;2022-07-30T04:29:03;1.83;;;0.88;;
71769;SDS011;59605;52.122;5.420;2022-07-30T04:31:32;2.43;;;1.07;;
71769;SDS011;59605;52.122;5.420;2022-07-30T04:34:06;1.17;;;0.88;;
71769;SDS011;59605;52.122;5.420;2022-07-30T04:36:33;2.28;;;1.17;;
71769;SDS011;59605;52.122;5.420;2022-07-30T04:39:00;1.27;;;1.00;;
71769;SDS011;59605;52.122;5.420;2022-07-30T04:41:27;2.42;;;1.20;;
71769;SDS011;59605;52.122;5.420;2022-07-30T04:44:13;1.47;;;1.00;;
71769;SDS011;59605;52.122;5.420;2022-07-30T04:46:39;1.85;;;1.00;;
71769;SDS011;59605;52.122;5.420;2022-07-30T04:49:06;2.58;;;1.10;;
71769;SDS011;59605;52.122;5.420;2022-07-30T04:51:33;2.83;;;2.25;;
71769;SDS011;59605;52.122;5.420;2022-07-30T04:54:02;2.10;;;1.25;;
71769;SDS011;59605;52.122;5.420;2022-07-30T04:56:32;1.57;;;1.30;;
71769;SDS011;59605;52.122;5.420;2022-07-30T04:59:00;2.10;;;1.02;;
71769;SDS011;59605;52.122;5.420;2022-07-30T05:01:30;2.85;;;1.13;;
71769;SDS011;59605;52.122;5.420;2022-07-30T05:04:05;3.67;;;1.17;;
71769;SDS011;59605;52.122;5.420;2022-07-30T05:06:35;1.20;;;1.02;;
71769;SDS011;59605;52.122;5.420;2022-07-30T05:09:03;3.67;;;1.23;;
71769;SDS011;59605;52.122;5.420;2022-07-30T05:11:31;1.90;;;1.35;;
71769;SDS011;59605;52.122;5.420;2022-07-30T05:13:57;2.95;;;1.40;;
71769;SDS011;59605;52.122;5.420;2022-07-30T05:16:24;3.47;;;1.63;;
71769;SDS011;59605;52.122;5.420;2022-07-30T05:18:50;1.83;;;1.27;;
71769;SDS011;59605;52.122;5.420;2022-07-30T05:21:17;9.93;;;1.83;;
71769;SDS011;59605;52.122;5.420;2022-07-30T05:23:43;3.30;;;2.10;;
71769;SDS011;59605;52.122;5.420;2022-07-30T05:26:18;5.78;;;2.42;;
71769;SDS011;59605;52.122;5.420;2022-07-30T05:28:46;2.72;;;1.80;;
71769;SDS011;59605;52.122;5.420;2022-07-30T05:31:19;3.08;;;2.35;;
71769;SDS011;59605;52.122;5.420;2022-07-30T05:33:46;9.50;;;1.93;;
71769;SDS011;59605;52.122;5.420;2022-07-30T05:36:12;2.75;;;1.65;;
71769;SDS011;59605;52.122;5.420;2022-07-30T05:38:39;3.25;;;2.00;;
71769;SDS011;59605;52.122;5.420;2022-07-30T05:41:05;3.58;;;2.10;;
71769;SDS011;59605;52.122;5.420;2022-07-30T05:43:52;3.35;;;1.90;;
71769;SDS011;59605;52.122;5.420;2022-07-30T05:46:21;4.83;;;2.93;;
71769;SDS011;59605;52.122;5.420;2022-07-30T05:48:48;4.18;;;2.83;;
71769;SDS011;59605;52.122;5.420;2022-07-30T05:51:14;5.78;;;3.40;;
71769;SDS011;59605;52.122;5.420;2022-07-30T05:53:41;3.55;;;2.70;;
71769;SDS011;59605;52.122;5.420;2022-07-30T05:56:07;6.03;;;2.78;;
71769;SDS011;59605;52.122;5.420;2022-07-30T05:58:34;8.57;;;2.77;;
71769;SDS011;59605;52.122;5.420;2022-07-30T06:01:00;6.72;;;2.20;;
71769;SDS011;59605;52.122;5.420;2022-07-30T06:03:27;4.68;;;2.20;;
71769;SDS011;59605;52.122;5.420;2022-07-30T06:05:53;4.63;;;2.10;;
71769;SDS011;59605;52.122;5.420;2022-07-30T06:08:20;3.42;;;2.53;;
71769;SDS011;59605;52.122;5.420;2022-07-30T06:10:46;3.13;;;2.10;;
71769;SDS011;59605;52.122;5.420;2022-07-30T06:13:12;5.43;;;1.90;;
71769;SDS011;59605;52.122;5.420;2022-07-30T06:15:39;3.63;;;1.83;;
71769;SDS011;59605;52.122;5.420;2022-07-30T06:18:05;4.53;;;1.70;;
71769;SDS011;59605;52.122;5.420;2022-07-30T06:20:32;4.47;;;1.70;;
71769;SDS011;59605;52.122;5.420;2022-07-30T06:22:59;5.23;;;1.30;;
71769;SDS011;59605;52.122;5.420;2022-07-30T06:25:25;6.45;;;2.17;;
71769;SDS011;59605;52.122;5.420;2022-07-30T06:27:52;3.25;;;1.40;;
71769;SDS011;59605;52.122;5.420;2022-07-30T06:30:18;2.80;;;1.65;;
71769;SDS011;59605;52.122;5.420;2022-07-30T06:32:55;5.15;;;1.65;;
71769;SDS011;59605;52.122;5.420;2022-07-30T06:35:22;7.10;;;1.87;;
71769;SDS011;59605;52.122;5.420;2022-07-30T06:37:48;3.60;;;1.63;;
71769;SDS011;59605;52.122;5.420;2022-07-30T06:40:32;5.40;;;1.60;;
71769;SDS011;59605;52.122;5.420;2022-07-30T06:42:59;2.97;;;1.33;;
71769;SDS011;59605;52.122;5.420;2022-07-30T06:45:25;1.83;;;1.27;;
71769;SDS011;59605;52.122;5.420;2022-07-30T06:47:55;5.73;;;1.90;;
71769;SDS011;59605;52.122;5.420;2022-07-30T06:50:22;3.70;;;1.25;;
71769;SDS011;59605;52.122;5.420;2022-07-30T06:52:49;3.85;;;0.95;;
71769;SDS011;59605;52.122;5.420;2022-07-30T06:55:15;2.40;;;1.08;;
71769;SDS011;59605;52.122;5.420;2022-07-30T06:57:42;12.70;;;1.77;;
71769;SDS011;59605;52.122;5.420;2022-07-30T07:00:08;4.77;;;1.30;;
71769;SDS011;59605;52.122;5.420;2022-07-30T07:02:35;1.95;;;0.82;;
71769;SDS011;59605;52.122;5.420;2022-07-30T07:05:02;5.88;;;1.30;;
71769;SDS011;59605;52.122;5.420;2022-07-30T07:07:28;2.80;;;1.25;;
71769;SDS011;59605;52.122;5.420;2022-07-30T07:10:07;4.47;;;1.23;;
71769;SDS011;59605;52.122;5.420;2022-07-30T07:12:33;3.37;;;1.37;;
71769;SDS011;59605;52.122;5.420;2022-07-30T07:15:00;3.83;;;1.10;;
71769;SDS011;59605;52.122;5.420;2022-07-30T07:17:27;7.40;;;1.42;;
71769;SDS011;59605;52.122;5.420;2022-07-30T07:19:53;5.25;;;1.50;;
71769;SDS011;59605;52.122;5.420;2022-07-30T07:22:27;4.45;;;1.17;;
71769;SDS011;59605;52.122;5.420;2022-07-30T07:24:53;2.13;;;0.90;;
71769;SDS011;59605;52.122;5.420;2022-07-30T07:27:19;7.00;;;1.75;;
71769;SDS011;59605;52.122;5.420;2022-07-30T07:29:46;15.95;;;1.67;;
71769;SDS011;59605;52.122;5.420;2022-07-30T07:32:31;4.15;;;1.00;;
71769;SDS011;59605;52.122;5.420;2022-07-30T07:34:59;4.75;;;1.35;;
71769;SDS011;59605;52.122;5.420;2022-07-30T07:37:25;3.10;;;1.10;;
71769;SDS011;59605;52.122;5.420;2022-07-30T07:39:52;10.05;;;1.10;;
71769;SDS011;59605;52.122;5.420;2022-07-30T07:42:19;1.92;;;0.90;;
71769;SDS011;59605;52.122;5.420;2022-07-30T07:44:45;5.28;;;1.20;;
71769;SDS011;59605;52.122;5.420;2022-07-30T07:47:11;7.95;;;1.10;;
71769;SDS011;59605;52.122;5.420;2022-07-30T07:49:38;5.13;;;1.00;;
71769;SDS011;59605;52.122;5.420;2022-07-30T07:52:04;15.68;;;1.23;;
71769;SDS011;59605;52.122;5.420;2022-07-30T07:54:31;4.60;;;1.13;;
71769;SDS011;59605;52.122;5.420;2022-07-30T07:56:57;4.55;;;1.25;;
71769;SDS011;59605;52.122;5.420;2022-07-30T07:59:27;4.68;;;1.10;;
71769;SDS011;59605;52.122;5.420;2022-07-30T08:02:06;7.87;;;1.23;;
71769;SDS011;59605;52.122;5.420;2022-07-30T08:04:33;3.42;;;0.88;;
71769;SDS011;59605;52.122;5.420;2022-07-30T08:07:00;3.45;;;1.00;;
71769;SDS011;59605;52.122;5.420;2022-07-30T08:09:27;2.72;;;1.15;;
71769;SDS011;59605;52.122;5.420;2022-07-30T08:12:11;3.08;;;1.00;;
71769;SDS011;59605;52.122;5.420;2022-07-30T08:14:37;3.03;;;0.83;;
71769;SDS011;59605;52.122;5.420;2022-07-30T08:17:04;4.18;;;1.45;;
71769;SDS011;59605;52.122;5.420;2022-07-30T08:19:31;5.78;;;1.05;;
71769;SDS011;59605;52.122;5.420;2022-07-30T08:21:58;2.30;;;0.82;;
71769;SDS011;59605;52.122;5.420;2022-07-30T08:24:25;4.63;;;1.02;;
71769;SDS011;59605;52.122;5.420;2022-07-30T08:26:51;3.77;;;0.93;;
71769;SDS011;59605;52.122;5.420;2022-07-30T08:29:18;5.63;;;0.60;;
71769;SDS011;59605;52.122;5.420;2022-07-30T08:31:44;1.77;;;0.90;;
71769;SDS011;59605;52.122;5.420;2022-07-30T08:34:11;1.75;;;0.80;;
71769;SDS011;59605;52.122;5.420;2022-07-30T08:36:38;5.07;;;1.15;;
71769;SDS011;59605;52.122;5.420;2022-07-30T08:39:05;2.20;;;1.30;;
71769;SDS011;59605;52.122;5.420;2022-07-30T08:41:32;3.28;;;0.75;;
71769;SDS011;59605;52.122;5.420;2022-07-30T08:43:59;3.08;;;0.75;;
71769;SDS011;59605;52.122;5.420;2022-07-30T08:46:26;3.97;;;0.77;;
71769;SDS011;59605;52.122;5.420;2022-07-30T08:48:56;2.95;;;0.90;;
71769;SDS011;59605;52.122;5.420;2022-07-30T08:51:23;2.10;;;0.80;;
71769;SDS011;59605;52.122;5.420;2022-07-30T08:53:49;1.05;;;0.68;;
71769;SDS011;59605;52.122;5.420;2022-07-30T08:56:16;2.38;;;1.08;;
71769;SDS011;59605;52.122;5.420;2022-07-30T08:58:43;1.85;;;0.63;;
71769;SDS011;59605;52.122;5.420;2022-07-30T09:01:10;3.85;;;0.68;;
71769;SDS011;59605;52.122;5.420;2022-07-30T09:03:37;1.60;;;1.13;;
71769;SDS011;59605;52.122;5.420;2022-07-30T09:06:09;3.72;;;1.00;;
71769;SDS011;59605;52.122;5.420;2022-07-30T09:08:36;2.05;;;0.88;;
71769;SDS011;59605;52.122;5.420;2022-07-30T09:11:02;4.03;;;0.73;;
71769;SDS011;59605;52.122;5.420;2022-07-30T09:13:30;5.32;;;0.80;;
71769;SDS011;59605;52.122;5.420;2022-07-30T09:16:03;4.17;;;1.20;;
71769;SDS011;59605;52.122;5.420;2022-07-30T09:18:35;9.38;;;1.48;;
71769;SDS011;59605;52.122;5.420;2022-07-30T09:21:17;2.40;;;0.90;;
71769;SDS011;59605;52.122;5.420;2022-07-30T09:23:58;7.68;;;1.13;;
71769;SDS011;59605;52.122;5.420;2022-07-30T09:26:55;4.80;;;0.80;;
71769;SDS011;59605;52.122;5.420;2022-07-30T09:29:27;6.60;;;1.47;;
71769;SDS011;59605;52.122;5.420;2022-07-30T09:31:55;2.92;;;0.90;;
71769;SDS011;59605;52.122;5.420;2022-07-30T09:36:55;2.22;;;0.90;;
71769;SDS011;59605;52.122;5.420;2022-07-30T09:39:33;4.72;;;1.17;;
71769;SDS011;59605;52.122;5.420;2022-07-30T09:42:02;6.13;;;1.00;;
71769;SDS011;59605;52.122;5.420;2022-07-30T09:44:30;4.47;;;1.10;;
71769;SDS011;59605;52.122;5.420;2022-07-30T09:46:56;3.72;;;0.77;;
71769;SDS011;59605;52.122;5.420;2022-07-30T09:49:27;3.40;;;1.15;;
71769;SDS011;59605;52.122;5.420;2022-07-30T09:51:54;3.20;;;1.10;;
71769;SDS011;59605;52.122;5.420;2022-07-30T09:54:23;4.03;;;1.10;;
71769;SDS011;59605;52.122;5.420;2022-07-30T09:57:04;2.47;;;1.15;;
71769;SDS011;59605;52.122;5.420;2022-07-30T09:59:51;3.28;;;0.77;;
71769;SDS011;59605;52.122;5.420;2022-07-30T10:02:17;1.50;;;0.80;;
71769;SDS011;59605;52.122;5.420;2022-07-30T10:04:45;2.00;;;0.98;;
71769;SDS011;59605;52.122;5.420;2022-07-30T10:07:18;3.47;;;1.07;;
71769;SDS011;59605;52.122;5.420;2022-07-30T10:09:51;4.55;;;1.38;;
71769;SDS011;59605;52.122;5.420;2022-07-30T10:12:19;3.83;;;1.17;;
71769;SDS011;59605;52.122;5.420;2022-07-30T10:14:49;2.80;;;1.77;;
71769;SDS011;59605;52.122;5.420;2022-07-30T10:17:19;3.00;;;1.00;;
71769;SDS011;59605;52.122;5.420;2022-07-30T10:19:47;3.27;;;1.10;;
71769;SDS011;59605;52.122;5.420;2022-07-30T10:22:14;1.60;;;0.77;;
71769;SDS011;59605;52.122;5.420;2022-07-30T10:24:42;1.20;;;0.85;;
71769;SDS011;59605;52.122;5.420;2022-07-30T10:27:10;2.83;;;1.02;;
71769;SDS011;59605;52.122;5.420;2022-07-30T10:29:38;2.55;;;1.08;;
71769;SDS011;59605;52.122;5.420;2022-07-30T10:32:07;1.30;;;0.97;;
71769;SDS011;59605;52.122;5.420;2022-07-30T10:34:34;4.30;;;1.00;;
71769;SDS011;59605;52.122;5.420;2022-07-30T10:37:07;3.13;;;1.73;;
71769;SDS011;59605;52.122;5.420;2022-07-30T10:39:52;2.33;;;0.93;;
71769;SDS011;59605;52.122;5.420;2022-07-30T10:47:48;2.75;;;0.80;;
71769;SDS011;59605;52.122;5.420;2022-07-30T10:50:16;1.13;;;0.60;;
71769;SDS011;59605;52.122;5.420;2022-07-30T10:52:52;2.50;;;0.68;;
71769;SDS011;59605;52.122;5.420;2022-07-30T10:55:22;1.50;;;0.80;;
71769;SDS011;59605;52.122;5.420;2022-07-30T11:00:33;6.78;;;0.82;;
71769;SDS011;59605;52.122;5.420;2022-07-30T11:03:10;4.13;;;0.90;;
71769;SDS011;59605;52.122;5.420;2022-07-30T11:05:41;2.65;;;0.60;;
71769;SDS011;59605;52.122;5.420;2022-07-30T11:11:02;2.20;;;0.70;;
71769;SDS011;59605;52.122;5.420;2022-07-30T11:14:09;1.80;;;0.98;;
71769;SDS011;59605;52.122;5.420;2022-07-30T11:24:48;3.93;;;0.90;;
71769;SDS011;59605;52.122;5.420;2022-07-30T11:30:01;2.45;;;1.05;;
71769;SDS011;59605;52.122;5.420;2022-07-30T11:32:30;3.78;;;1.08;;
71769;SDS011;59605;52.122;5.420;2022-07-30T11:35:11;3.55;;;1.02;;
71769;SDS011;59605;52.122;5.420;2022-07-30T11:40:37;3.45;;;0.80;;
71769;SDS011;59605;52.122;5.420;2022-07-30T11:43:31;2.53;;;0.70;;
71769;SDS011;59605;52.122;5.420;2022-07-30T11:46:05;1.73;;;0.65;;
71769;SDS011;59605;52.122;5.420;2022-07-30T11:48:37;2.20;;;0.70;;
71769;SDS011;59605;52.122;5.420;2022-07-30T11:51:07;4.43;;;0.87;;
71769;SDS011;59605;52.122;5.420;2022-07-30T11:53:34;2.45;;;0.70;;
71769;SDS011;59605;52.122;5.420;2022-07-30T11:56:02;4.03;;;0.80;;
71769;SDS011;59605;52.122;5.420;2022-07-30T11:58:32;4.13;;;0.70;;
71769;SDS011;59605;52.122;5.420;2022-07-30T12:01:06;1.38;;;0.50;;
71769;SDS011;59605;52.122;5.420;2022-07-30T12:03:38;4.53;;;0.90;;
71769;SDS011;59605;52.122;5.420;2022-07-30T12:06:10;1.05;;;0.70;;
71769;SDS011;59605;52.122;5.420;2022-07-30T12:08:46;3.58;;;1.20;;
71769;SDS011;59605;52.122;5.420;2022-07-30T12:11:14;2.08;;;0.63;;
71769;SDS011;59605;52.122;5.420;2022-07-30T12:13:41;2.03;;;0.80;;
71769;SDS011;59605;52.122;5.420;2022-07-30T12:16:15;8.33;;;0.70;;
71769;SDS011;59605;52.122;5.420;2022-07-30T12:18:43;2.13;;;0.52;;
71769;SDS011;59605;52.122;5.420;2022-07-30T12:21:10;2.33;;;0.60;;
71769;SDS011;59605;52.122;5.420;2022-07-30T12:23:37;2.03;;;0.68;;
71769;SDS011;59605;52.122;5.420;2022-07-30T12:26:18;2.50;;;0.90;;
71769;SDS011;59605;52.122;5.420;2022-07-30T12:28:46;4.03;;;0.80;;
71769;SDS011;59605;52.122;5.420;2022-07-30T12:31:16;5.70;;;0.95;;
71769;SDS011;59605;52.122;5.420;2022-07-30T12:33:43;3.10;;;0.60;;
71769;SDS011;59605;52.122;5.420;2022-07-30T12:36:09;2.88;;;0.82;;
71769;SDS011;59605;52.122;5.420;2022-07-30T12:38:53;3.13;;;0.85;;
71769;SDS011;59605;52.122;5.420;2022-07-30T12:41:21;3.37;;;0.83;;
71769;SDS011;59605;52.122;5.420;2022-07-30T12:43:54;4.00;;;1.00;;
71769;SDS011;59605;52.122;5.420;2022-07-30T12:46:22;2.53;;;0.50;;
71769;SDS011;59605;52.122;5.420;2022-07-30T12:48:53;10.35;;;1.15;;
71769;SDS011;59605;52.122;5.420;2022-07-30T12:51:24;2.90;;;0.85;;
71769;SDS011;59605;52.122;5.420;2022-07-30T12:53:53;3.10;;;0.70;;
71769;SDS011;59605;52.122;5.420;2022-07-30T12:56:24;2.25;;;0.70;;
71769;SDS011;59605;52.122;5.420;2022-07-30T12:58:53;2.72;;;0.82;;
71769;SDS011;59605;52.122;5.420;2022-07-30T13:01:40;5.05;;;1.45;;
71769;SDS011;59605;52.122;5.420;2022-07-30T13:04:08;3.78;;;0.98;;
71769;SDS011;59605;52.122;5.420;2022-07-30T13:06:35;2.27;;;0.90;;
71769;SDS011;59605;52.122;5.420;2022-07-30T13:09:03;2.20;;;0.82;;
71769;SDS011;59605;52.122;5.420;2022-07-30T13:11:37;3.50;;;0.73;;
71769;SDS011;59605;52.122;5.420;2022-07-30T13:14:05;2.38;;;0.50;;
71769;SDS011;59605;52.122;5.420;2022-07-30T13:16:33;1.77;;;0.80;;
71769;SDS011;59605;52.122;5.420;2022-07-30T13:19:04;3.80;;;0.80;;
71769;SDS011;59605;52.122;5.420;2022-07-30T13:21:32;1.20;;;0.52;;
71769;SDS011;59605;52.122;5.420;2022-07-30T13:23:59;3.35;;;0.70;;
71769;SDS011;59605;52.122;5.420;2022-07-30T13:26:25;3.88;;;0.75;;
71769;SDS011;59605;52.122;5.420;2022-07-30T13:28:54;2.25;;;0.90;;
71769;SDS011;59605;52.122;5.420;2022-07-30T13:31:27;6.73;;;0.83;;
71769;SDS011;59605;52.122;5.420;2022-07-30T13:34:07;1.88;;;0.80;;
71769;SDS011;59605;52.122;5.420;2022-07-30T13:36:34;1.77;;;0.70;;
71769;SDS011;59605;52.122;5.420;2022-07-30T13:39:00;5.07;;;0.85;;
71769;SDS011;59605;52.122;5.420;2022-07-30T13:41:27;1.95;;;0.68;;
71769;SDS011;59605;52.122;5.420;2022-07-30T13:43:54;4.90;;;0.90;;
71769;SDS011;59605;52.122;5.420;2022-07-30T13:46:20;1.80;;;0.57;;
71769;SDS011;59605;52.122;5.420;2022-07-30T13:48:47;4.80;;;0.80;;
71769;SDS011;59605;52.122;5.420;2022-07-30T13:51:13;1.67;;;0.68;;
71769;SDS011;59605;52.122;5.420;2022-07-30T13:53:41;2.92;;;0.60;;
71769;SDS011;59605;52.122;5.420;2022-07-30T13:56:08;3.43;;;1.10;;
71769;SDS011;59605;52.122;5.420;2022-07-30T13:58:38;4.20;;;0.70;;
71769;SDS011;59605;52.122;5.420;2022-07-30T14:01:05;0.95;;;0.70;;
71769;SDS011;59605;52.122;5.420;2022-07-30T14:03:32;1.73;;;0.80;;
71769;SDS011;59605;52.122;5.420;2022-07-30T14:06:00;2.05;;;0.80;;
71769;SDS011;59605;52.122;5.420;2022-07-30T14:08:36;3.07;;;0.87;;
71769;SDS011;59605;52.122;5.420;2022-07-30T14:11:03;1.98;;;0.60;;
71769;SDS011;59605;52.122;5.420;2022-07-30T14:13:30;3.20;;;0.70;;
71769;SDS011;59605;52.122;5.420;2022-07-30T14:15:56;1.15;;;0.65;;
71769;SDS011;59605;52.122;5.420;2022-07-30T14:18:23;2.08;;;0.80;;
71769;SDS011;59605;52.122;5.420;2022-07-30T14:20:49;2.13;;;0.70;;
71769;SDS011;59605;52.122;5.420;2022-07-30T14:23:18;2.67;;;0.68;;
71769;SDS011;59605;52.122;5.420;2022-07-30T14:25:45;1.92;;;0.80;;
71769;SDS011;59605;52.122;5.420;2022-07-30T14:28:11;1.63;;;0.70;;
71769;SDS011;59605;52.122;5.420;2022-07-30T14:30:38;2.92;;;1.00;;
71769;SDS011;59605;52.122;5.420;2022-07-30T14:33:04;3.83;;;1.20;;
71769;SDS011;59605;52.122;5.420;2022-07-30T14:35:31;1.55;;;0.85;;
71769;SDS011;59605;52.122;5.420;2022-07-30T14:37:57;1.80;;;0.75;;
71769;SDS011;59605;52.122;5.420;2022-07-30T14:40:23;2.45;;;0.90;;
71769;SDS011;59605;52.122;5.420;2022-07-30T14:42:50;3.35;;;1.10;;
71769;SDS011;59605;52.122;5.420;2022-07-30T14:45:16;3.67;;;1.43;;
71769;SDS011;59605;52.122;5.420;2022-07-30T14:47:43;2.40;;;0.70;;
71769;SDS011;59605;52.122;5.420;2022-07-30T14:50:09;2.00;;;0.60;;
71769;SDS011;59605;52.122;5.420;2022-07-30T14:52:36;1.75;;;0.50;;
71769;SDS011;59605;52.122;5.420;2022-07-30T14:55:04;2.45;;;0.80;;
71769;SDS011;59605;52.122;5.420;2022-07-30T14:57:32;1.03;;;0.60;;
71769;SDS011;59605;52.122;5.420;2022-07-30T14:59:59;4.60;;;0.80;;
71769;SDS011;59605;52.122;5.420;2022-07-30T15:02:26;1.85;;;0.60;;
71769;SDS011;59605;52.122;5.420;2022-07-30T15:04:53;3.55;;;0.80;;
71769;SDS011;59605;52.122;5.420;2022-07-30T15:07:19;1.40;;;0.90;;
71769;SDS011;59605;52.122;5.420;2022-07-30T15:09:45;2.70;;;0.90;;
71769;SDS011;59605;52.122;5.420;2022-07-30T15:12:12;2.08;;;0.80;;
71769;SDS011;59605;52.122;5.420;2022-07-30T15:14:52;2.25;;;1.00;;
71769;SDS011;59605;52.122;5.420;2022-07-30T15:17:18;3.20;;;1.10;;
71769;SDS011;59605;52.122;5.420;2022-07-30T15:19:46;2.88;;;0.98;;
71769;SDS011;59605;52.122;5.420;2022-07-30T15:22:16;7.00;;;1.27;;
71769;SDS011;59605;52.122;5.420;2022-07-30T15:24:46;5.22;;;1.50;;
71769;SDS011;59605;52.122;5.420;2022-07-30T15:27:13;3.88;;;1.45;;
71769;SDS011;59605;52.122;5.420;2022-07-30T15:29:40;2.72;;;1.27;;
71769;SDS011;59605;52.122;5.420;2022-07-30T15:32:06;3.20;;;1.35;;
71769;SDS011;59605;52.122;5.420;2022-07-30T15:34:33;3.90;;;1.43;;